Matilda — 9HZM9 — position and weather

sailwx.info

Track history (hours):
 
Tides and Currents Weather Stations Pressure Air Temp Water Temp Dewpoint Dewpoint Depression Visibility Wind Speed Wind Dir Waves Ship Positions

Matilda

Last reported at 2017-Nov-27 14:29 UTC. Time now 2017-Dec-12 04:47 UTC.
Position N 34°52' W 012°02'.
Warning: this ship's position is 14 days out of date.

Length 250 m; draft 13.3 m.

Type: Ship (hazmat cat A). MMSI: 249747000.

Date/timePositionNaut miles runAvg speedWind from/ knotsBaromVisibWave heightAir tempDewpointWater temp
2017-Nov-27 14:29N 34°52' W 012°02'31312.9
2017-Nov-26 14:12N 35°57' W 005°46'312.8
2017-Nov-26 13:56N 35°57' W 005°42'511.7
2017-Nov-26 13:30N 35°57' W 005°36'510.8
2017-Nov-26 13:00N 35°59' W 005°29'510.3
2017-Nov-26 12:30N 36°00' W 005°23'510.3
2017-Nov-26 12:00N 36°02' W 005°17'712.9
2017-Nov-26 11:27N 36°03' W 005°08'21212.5
2017-Nov-25 18:34N 36°31' W 000°48'112.8
2017-Nov-25 18:27N 36°31' W 000°46'1312.8
2017-Nov-25 17:25N 36°35' W 000°31'512.9
2017-Nov-25 17:00N 36°37' W 000°24'812.9
2017-Nov-25 16:25N 36°39' W 000°15'1312.9
2017-Nov-25 15:22N 36°43' E 000°01'1012.7
2017-Nov-25 14:36N 36°46' E 000°12'212.7
2017-Nov-25 14:26N 36°46' E 000°15'712.7
2017-Nov-25 13:52N 36°48' E 000°24'512.6
2017-Nov-25 13:27N 36°50' E 000°30'612.6
2017-Nov-25 12:59N 36°51' E 000°37'612.5
2017-Nov-25 12:30N 36°53' E 000°44'612.5
2017-Nov-25 11:59N 36°56' E 000°52'712.7
2017-Nov-25 11:28N 36°57' E 000°60'612.8
2017-Nov-25 11:00N 36°59' E 001°07'612.8
2017-Nov-25 10:30N 37°01' E 001°14'912.8
2017-Nov-25 09:47N 37°04' E 001°25'412.8
2017-Nov-25 09:30N 37°05' E 001°30'612.8
2017-Nov-25 09:00N 37°07' E 001°37'713.2
2017-Nov-25 08:30N 37°09' E 001°45'613.1
2017-Nov-25 08:00N 37°11' E 001°53'612.9
2017-Nov-25 07:30N 37°13' E 002°01'612.8
2017-Nov-25 07:00N 37°14' E 002°08'713.1
2017-Nov-25 06:30N 37°16' E 002°16'713.1
2017-Nov-25 05:57N 37°18' E 002°25'613.1
2017-Nov-25 05:30N 37°20' E 002°32'1713.2
2017-Nov-25 04:11N 37°25' E 002°53'313.1
2017-Nov-25 04:00N 37°25' E 002°56'813.2
2017-Nov-25 03:23N 37°26' E 003°06'713.1
2017-Nov-25 02:52N 37°27' E 003°15'513.1
2017-Nov-25 02:28N 37°27' E 003°21'3213.1
2017-Nov-25 00:02N 37°30' E 004°01'213.1
2017-Nov-24 23:53N 37°30' E 004°04'513.0
2017-Nov-24 23:28N 37°31' E 004°10'1913.0
2017-Nov-24 22:03N 37°32' E 004°34'112.9
2017-Nov-24 21:58N 37°32' E 004°35'45512.6
2017-Nov-23 09:47N 36°35' E 014°01'412.8
2017-Nov-23 09:30N 36°33' E 014°04'712.9
2017-Nov-23 09:00N 36°31' E 014°12'612.9
2017-Nov-23 08:30N 36°29' E 014°20'713.0
2017-Nov-23 08:00N 36°27' E 014°27'613.2
2017-Nov-23 07:30N 36°26' E 014°35'712.8
2017-Nov-23 06:58N 36°24' E 014°43'  
Track history (hours):
 
Tides and Currents Weather Stations Pressure Air Temp Water Temp Dewpoint Dewpoint Depression Visibility Wind Speed Wind Dir Waves Ship Positions

Matilda

Last reported at 2017-Nov-27 14:29 UTC. Time now 2017-Dec-12 04:47 UTC.
Position N 34°52' W 012°02'.
Warning: this ship's position is 14 days out of date.

Length 250 m; draft 13.3 m.

Type: Ship (hazmat cat A). MMSI: 249747000.

Date/timePositionNaut miles runAvg speedWind from/ knotsBaromVisibWave heightAir tempDewpointWater temp
2017-Nov-27 14:29N 34°52' W 012°02'31312.9
2017-Nov-26 14:12N 35°57' W 005°46'312.8
2017-Nov-26 13:56N 35°57' W 005°42'511.7
2017-Nov-26 13:30N 35°57' W 005°36'510.8
2017-Nov-26 13:00N 35°59' W 005°29'510.3
2017-Nov-26 12:30N 36°00' W 005°23'510.3
2017-Nov-26 12:00N 36°02' W 005°17'712.9
2017-Nov-26 11:27N 36°03' W 005°08'21212.5
2017-Nov-25 18:34N 36°31' W 000°48'112.8
2017-Nov-25 18:27N 36°31' W 000°46'1312.8
2017-Nov-25 17:25N 36°35' W 000°31'512.9
2017-Nov-25 17:00N 36°37' W 000°24'812.9
2017-Nov-25 16:25N 36°39' W 000°15'1312.9
2017-Nov-25 15:22N 36°43' E 000°01'1012.7
2017-Nov-25 14:36N 36°46' E 000°12'212.7
2017-Nov-25 14:26N 36°46' E 000°15'712.7
2017-Nov-25 13:52N 36°48' E 000°24'512.6
2017-Nov-25 13:27N 36°50' E 000°30'612.6
2017-Nov-25 12:59N 36°51' E 000°37'612.5
2017-Nov-25 12:30N 36°53' E 000°44'612.5
2017-Nov-25 11:59N 36°56' E 000°52'712.7
2017-Nov-25 11:28N 36°57' E 000°60'612.8
2017-Nov-25 11:00N 36°59' E 001°07'612.8
2017-Nov-25 10:30N 37°01' E 001°14'912.8
2017-Nov-25 09:47N 37°04' E 001°25'412.8
2017-Nov-25 09:30N 37°05' E 001°30'612.8
2017-Nov-25 09:00N 37°07' E 001°37'713.2
2017-Nov-25 08:30N 37°09' E 001°45'613.1
2017-Nov-25 08:00N 37°11' E 001°53'612.9
2017-Nov-25 07:30N 37°13' E 002°01'612.8
2017-Nov-25 07:00N 37°14' E 002°08'713.1
2017-Nov-25 06:30N 37°16' E 002°16'713.1
2017-Nov-25 05:57N 37°18' E 002°25'613.1
2017-Nov-25 05:30N 37°20' E 002°32'1713.2
2017-Nov-25 04:11N 37°25' E 002°53'313.1
2017-Nov-25 04:00N 37°25' E 002°56'813.2
2017-Nov-25 03:23N 37°26' E 003°06'713.1
2017-Nov-25 02:52N 37°27' E 003°15'513.1
2017-Nov-25 02:28N 37°27' E 003°21'3213.1
2017-Nov-25 00:02N 37°30' E 004°01'213.1
2017-Nov-24 23:53N 37°30' E 004°04'513.0
2017-Nov-24 23:28N 37°31' E 004°10'1913.0
2017-Nov-24 22:03N 37°32' E 004°34'112.9
2017-Nov-24 21:58N 37°32' E 004°35'45512.6
2017-Nov-23 09:47N 36°35' E 014°01'412.8
2017-Nov-23 09:30N 36°33' E 014°04'712.9
2017-Nov-23 09:00N 36°31' E 014°12'612.9
2017-Nov-23 08:30N 36°29' E 014°20'713.0
2017-Nov-23 08:00N 36°27' E 014°27'613.2
2017-Nov-23 07:30N 36°26' E 014°35'712.8
2017-Nov-23 06:58N 36°24' E 014°43'  

Dump ship's entire track history